Hoodsport, Washington
Current Conditions -  °F | °C
As of 7:18 AM on Wednesday 26 Nov 2014 (Local Time) from KSHN Reporting Station
Light Rain Light Rain  
Wind Chill: 54°   Ceiling: 4500
Heat Index: 54°   Visibility: 6mi
Dew Point: 52°   Wind: 7mph
Humidity: 93%   Direction: 200°SSW
Pressure: 30.12"   Gusts: NA
Location:  47.41°N, 123.14°W
Report Text: KSHN 261518Z AUTO 20006KT 6SM -RA BR SCT015 SCT032 OVC045 12/11 A3012 RMK AO2 RAB14 P0000 T01220111
Loading
Personal Weather Stations






























Interactive Weather Map New forecast layout! Learn more

10-Day Weather Forecast

Advertisements
Track Severe Weather on mobile